Еласы

Карта отелей и гостиниц, располагающихся рядом с аэропортом Еласы :

Еласы Марий Эл 56° 10' 22.62" N, 46° 29' 47.5188" E
Еласы Марий Эл 56° 10' 22.62" N, 46° 29' 47.5188" E
Код аэродрома ИКАО
ZEZ1
Код аэродрома RU
ЗЕЗ1
Координаты
N56.17295° E046.49653°
Превышение над уровнем моря
178
Основная полоса
02/20
Курс магнитный
016/196
Длина основной ВПП
430
Ширина основной ВПП
18
Покрытие основной ВПП
Твёрдое (асфальт)
Освещение ВПП
Нет
Тип: 
Аэродром
Класс аэродрома: 
Принадлежность: 
ГА
Статус: 
Недействующий
Сайт: 
E-mail аэродрома: 
Страна: 
Россия
Регион: 
Марий Эл
Город: 
Дополнительная информация: 
Площадка АХР.

Найти трансфер

С помощью этой формы Вы можете найти трансфер из аэропорта Еласы в город, аэропорт или вокзал:

Карта места

Javascript is required to view this map.

Погода в аэропортах:

Авиационная погода в Гомеле

Регион: 
Погода METAR: 
UMGG 170530Z 29005MPS 2100 -SHSN BR OVC018CB M18/M21 Q1013 R28/490635 TEMPO 1400
Время наблюдения
2021-01-17T05:30:00Z
Температура C
-18.0
Точка росы
-21.0
Направление ветра
290
Скорость ветра (узлы)
10
Метео видимость
1.3
Явления погоды
-SHSN BR
Условия полета
IFR
Аэропорт подробнее: 

Авиационная погода в Астрахани

Регион: 
Погода METAR: 
URWA 170530Z 07003MPS 3300 BR OVC003 M04/M05 Q1014 R27/010070 NOSIG RMK OBST OBSC QFE762/1017
Время наблюдения
2021-01-17T05:30:00Z
Температура C
-4.0
Точка росы
-5.0
Направление ветра
70
Скорость ветра (узлы)
6
Метео видимость
2.05
Явления погоды
BR
Условия полета
LIFR
Аэропорт подробнее: 

Авиационная погода в Пулково

Регион: 
Погода METAR: 
ULLI 170530Z 24002MPS 190V270 9999 -SN BKN008 M10/M12 Q1016 R28L/490540 NOSIG
Время наблюдения
2021-01-17T05:30:00Z
Температура C
-10.0
Точка росы
-12.0
Направление ветра
240
Скорость ветра (узлы)
4
Метео видимость
6.21
Явления погоды
-SN
Условия полета
IFR
Аэропорт подробнее: 

Авиационная погода в Игнатьево

Регион: 
Погода METAR: 
UHBB 170530Z 03002MPS 9999 -SN SCT033 M26/M29 Q1012 R36/420360 NOSIG RMK QFE741/0989
Время наблюдения
2021-01-17T05:30:00Z
Температура C
-26.0
Точка росы
-29.0
Направление ветра
30
Скорость ветра (узлы)
4
Метео видимость
6.21
Явления погоды
-SN
Условия полета
VFR
Аэропорт подробнее: